createdAt,value
2022-10-26T00:00:32.850Z,8.57
2022-10-26T00:02:59.687Z,8.30
2022-10-26T00:05:26.837Z,8.27
2022-10-26T00:07:53.792Z,8.60
2022-10-26T00:10:22.045Z,9.40
2022-10-26T00:12:52.833Z,8.10
2022-10-26T00:15:20.322Z,8.27
2022-10-26T00:17:47.791Z,7.93
2022-10-26T00:20:15.212Z,8.17
2022-10-26T00:22:41.967Z,7.67
2022-10-26T00:25:09.116Z,6.60
2022-10-26T00:27:36.134Z,7.07
2022-10-26T00:30:04.655Z,7.43
2022-10-26T00:32:31.929Z,7.47
2022-10-26T00:35:06.105Z,7.97
2022-10-26T00:37:43.401Z,6.87
2022-10-26T00:40:10.486Z,5.73
2022-10-26T00:42:37.291Z,5.00
2022-10-26T00:45:06.934Z,4.43
2022-10-26T00:47:47.604Z,5.47
2022-10-26T00:50:29.506Z,5.60
2022-10-26T00:52:58.222Z,4.60
2022-10-26T00:55:27.159Z,5.27
2022-10-26T00:57:54.434Z,6.03
2022-10-26T01:00:21.622Z,5.83
2022-10-26T01:02:50.548Z,8.50
2022-10-26T01:05:18.259Z,6.57
2022-10-26T01:07:45.947Z,6.83
2022-10-26T01:10:14.213Z,5.93
2022-10-26T01:12:41.320Z,6.63
2022-10-26T01:15:08.683Z,7.87
2022-10-26T01:17:41.878Z,6.40
2022-10-26T01:20:08.727Z,6.63
2022-10-26T01:22:42.503Z,5.57
2022-10-26T01:25:09.363Z,4.47
2022-10-26T01:27:38.367Z,5.43
2022-10-26T01:30:14.032Z,5.63
2022-10-26T01:32:56.263Z,6.77
2022-10-26T01:35:25.799Z,5.90
2022-10-26T01:37:59.034Z,5.37
2022-10-26T01:40:31.169Z,3.97
2022-10-26T01:42:59.632Z,3.80
2022-10-26T01:45:27.847Z,5.00
2022-10-26T01:47:55.134Z,6.10
2022-10-26T01:50:23.203Z,5.53
2022-10-26T01:52:50.872Z,5.67
2022-10-26T01:55:36.116Z,4.93
2022-10-26T01:58:08.631Z,7.33
2022-10-26T02:00:39.059Z,4.80
2022-10-26T02:03:30.562Z,4.93
2022-10-26T02:06:16.015Z,5.30
2022-10-26T02:08:53.465Z,6.50
2022-10-26T02:11:28.491Z,6.10
2022-10-26T02:14:07.607Z,7.20
2022-10-26T02:16:54.215Z,5.07
2022-10-26T02:19:21.095Z,6.50
2022-10-26T02:21:50.670Z,6.40
2022-10-26T02:24:17.776Z,5.50
2022-10-26T02:26:46.693Z,6.53
2022-10-26T02:29:18.409Z,7.33
2022-10-26T02:31:46.698Z,6.20
2022-10-26T02:34:15.418Z,5.47
2022-10-26T02:36:44.172Z,4.13
2022-10-26T02:39:11.799Z,6.00
2022-10-26T02:41:39.825Z,6.03
2022-10-26T02:44:13.529Z,6.77
2022-10-26T02:46:40.886Z,4.93
2022-10-26T02:49:07.682Z,6.13
2022-10-26T02:51:37.669Z,6.67
2022-10-26T02:54:04.531Z,6.63
2022-10-26T02:56:36.888Z,5.93
2022-10-26T02:59:05.607Z,6.37
2022-10-26T03:01:34.102Z,7.83
2022-10-26T03:04:01.318Z,5.97
2022-10-26T03:06:28.241Z,7.87
2022-10-26T03:08:55.171Z,6.27
2022-10-26T03:11:21.933Z,7.07
2022-10-26T03:13:48.849Z,5.53
2022-10-26T03:16:15.624Z,6.53
2022-10-26T03:18:42.627Z,6.97
2022-10-26T03:21:09.406Z,7.80
2022-10-26T03:23:36.170Z,7.40
2022-10-26T03:26:03.007Z,6.03
2022-10-26T03:28:30.820Z,7.40
2022-10-26T03:30:57.574Z,10.33
2022-10-26T03:33:27.191Z,8.93
2022-10-26T03:35:56.181Z,9.47
2022-10-26T03:38:23.145Z,8.23
2022-10-26T03:40:49.878Z,6.73
2022-10-26T03:43:16.717Z,7.33
2022-10-26T03:45:43.540Z,7.00
2022-10-26T03:48:10.385Z,5.97
2022-10-26T03:50:37.135Z,7.30
2022-10-26T03:53:04.176Z,5.93
2022-10-26T03:55:30.945Z,6.03
2022-10-26T03:57:57.825Z,6.27
2022-10-26T04:00:24.715Z,7.97
2022-10-26T04:02:58.976Z,9.83
2022-10-26T04:05:26.525Z,6.50
2022-10-26T04:08:01.001Z,4.97
2022-10-26T04:10:28.302Z,7.47
2022-10-26T04:12:55.613Z,19.73
2022-10-26T04:15:22.589Z,13.80
2022-10-26T04:17:49.525Z,18.87
2022-10-26T04:20:16.541Z,19.77
2022-10-26T04:22:43.326Z,8.60
2022-10-26T04:25:11.573Z,6.50
2022-10-26T04:27:38.435Z,6.47
2022-10-26T04:30:08.437Z,6.60
2022-10-26T04:32:35.259Z,7.37
2022-10-26T04:35:01.989Z,6.97
2022-10-26T04:37:28.840Z,8.10
2022-10-26T04:39:55.622Z,17.07
2022-10-26T04:42:22.425Z,12.87
2022-10-26T04:44:49.332Z,12.67
2022-10-26T04:47:16.110Z,10.07
2022-10-26T04:49:42.917Z,11.33
2022-10-26T04:52:09.761Z,8.67
2022-10-26T04:54:36.527Z,8.47
2022-10-26T04:57:03.305Z,7.20
2022-10-26T04:59:30.172Z,6.83
2022-10-26T05:01:56.942Z,7.60
2022-10-26T05:04:23.846Z,7.43
2022-10-26T05:06:52.578Z,7.57
2022-10-26T05:09:19.416Z,8.47
2022-10-26T05:11:46.194Z,8.13
2022-10-26T05:14:13.426Z,8.77
2022-10-26T05:16:40.326Z,8.17
2022-10-26T05:19:07.161Z,9.37
2022-10-26T05:21:33.954Z,14.53
2022-10-26T05:24:01.287Z,17.20
2022-10-26T05:26:28.376Z,17.23
2022-10-26T05:28:55.139Z,9.63
2022-10-26T05:31:21.983Z,16.40
2022-10-26T05:33:49.455Z,15.30
2022-10-26T05:36:17.223Z,17.40
2022-10-26T05:38:43.957Z,19.30
2022-10-26T05:41:10.861Z,17.30
2022-10-26T05:43:37.584Z,13.20
2022-10-26T05:46:04.468Z,11.00
2022-10-26T05:48:31.317Z,12.77
2022-10-26T05:51:01.601Z,13.53
2022-10-26T05:53:28.740Z,12.63
2022-10-26T05:55:56.376Z,10.00
2022-10-26T05:58:23.747Z,12.50
2022-10-26T06:01:19.718Z,18.07
2022-10-26T06:03:49.353Z,14.60
2022-10-26T06:06:16.298Z,12.70
2022-10-26T06:08:43.236Z,10.20
2022-10-26T06:11:10.673Z,11.00
2022-10-26T06:13:37.642Z,11.43
2022-10-26T06:16:16.671Z,10.40
2022-10-26T06:18:43.532Z,9.77
2022-10-26T06:21:29.100Z,11.83
2022-10-26T06:24:05.104Z,10.33
2022-10-26T06:26:34.753Z,10.93
2022-10-26T06:29:11.164Z,9.27
2022-10-26T06:31:38.171Z,9.47
2022-10-26T06:34:05.019Z,9.10
2022-10-26T06:36:32.275Z,9.23
2022-10-26T06:39:01.585Z,10.60
2022-10-26T06:41:28.630Z,9.47
2022-10-26T06:43:55.749Z,9.90
2022-10-26T06:46:26.369Z,11.93
2022-10-26T06:49:03.874Z,13.40
2022-10-26T06:51:31.263Z,11.13
2022-10-26T06:54:06.497Z,12.70
2022-10-26T06:56:33.502Z,11.53
2022-10-26T06:59:07.827Z,12.30
2022-10-26T07:01:34.754Z,12.13
2022-10-26T07:04:01.642Z,11.50
2022-10-26T07:06:28.448Z,13.53
2022-10-26T07:08:55.352Z,11.73
2022-10-26T07:11:22.156Z,12.27
2022-10-26T07:13:50.853Z,11.67
2022-10-26T07:16:17.779Z,10.07
2022-10-26T07:18:44.943Z,10.43
2022-10-26T07:21:11.753Z,10.27
2022-10-26T07:23:38.479Z,10.80
2022-10-26T07:26:05.413Z,13.00
2022-10-26T07:28:32.243Z,9.93
2022-10-26T07:30:59.463Z,9.83
2022-10-26T07:33:26.228Z,9.80
2022-10-26T07:35:54.453Z,9.83
2022-10-26T07:38:21.268Z,9.87
2022-10-26T07:40:49.278Z,10.27
2022-10-26T07:43:16.496Z,11.20
2022-10-26T07:45:43.286Z,11.27
2022-10-26T07:48:10.125Z,10.20
2022-10-26T07:50:36.944Z,11.37
2022-10-26T07:53:04.132Z,10.47
2022-10-26T07:55:31.065Z,11.63
2022-10-26T07:57:58.271Z,9.70
2022-10-26T08:00:26.234Z,10.67
2022-10-26T08:02:53.145Z,10.90
2022-10-26T08:05:20.228Z,10.10
2022-10-26T08:07:47.251Z,10.73
2022-10-26T08:10:14.860Z,9.97
2022-10-26T08:12:42.278Z,10.63
2022-10-26T08:15:09.210Z,10.23
2022-10-26T08:17:36.084Z,9.80
2022-10-26T08:20:03.206Z,9.77
2022-10-26T08:22:30.996Z,9.60
2022-10-26T08:24:57.746Z,9.73
2022-10-26T08:27:24.684Z,9.17
2022-10-26T08:29:51.463Z,10.23
2022-10-26T08:32:18.351Z,9.70
2022-10-26T08:34:45.088Z,9.73
2022-10-26T08:37:11.997Z,9.50
2022-10-26T08:39:38.737Z,8.73
2022-10-26T08:42:17.518Z,8.33
2022-10-26T08:44:47.742Z,8.20
2022-10-26T08:47:14.553Z,8.63
2022-10-26T08:49:45.620Z,8.20
2022-10-26T08:52:15.625Z,8.50
2022-10-26T08:54:44.457Z,8.97
2022-10-26T08:57:17.092Z,8.73
2022-10-26T08:59:49.568Z,9.20
2022-10-26T09:02:17.223Z,8.70
2022-10-26T09:04:44.563Z,7.90
2022-10-26T09:07:29.731Z,9.47
2022-10-26T09:10:02.388Z,8.17
2022-10-26T09:12:43.075Z,7.63
2022-10-26T09:15:09.900Z,7.33
2022-10-26T09:17:39.708Z,7.00
2022-10-26T09:20:09.710Z,6.27
2022-10-26T09:22:36.448Z,5.53
2022-10-26T09:25:10.802Z,5.17
2022-10-26T09:27:42.542Z,4.43
2022-10-26T09:30:14.230Z,5.10
2022-10-26T09:32:44.701Z,3.57
2022-10-26T09:35:14.417Z,3.80
2022-10-26T09:37:47.252Z,3.50
2022-10-26T09:40:31.809Z,3.60
2022-10-26T09:43:02.923Z,3.77
2022-10-26T09:45:32.977Z,3.40
2022-10-26T09:48:20.044Z,3.57
2022-10-26T09:50:49.086Z,3.57
2022-10-26T09:53:16.045Z,3.83
2022-10-26T09:55:45.376Z,3.43
2022-10-26T09:58:24.538Z,3.17
2022-10-26T10:00:51.938Z,3.83
2022-10-26T10:03:26.163Z,3.27
2022-10-26T10:05:53.296Z,3.27
2022-10-26T10:08:26.952Z,3.53
2022-10-26T10:10:59.742Z,3.33
2022-10-26T10:13:30.834Z,3.73
2022-10-26T10:16:17.812Z,3.00
2022-10-26T10:18:52.910Z,3.10
2022-10-26T10:21:19.797Z,2.70
2022-10-26T10:23:49.155Z,2.50
2022-10-26T10:26:16.046Z,2.70
2022-10-26T10:28:43.025Z,2.70
2022-10-26T10:31:30.128Z,2.97
2022-10-26T10:33:57.176Z,2.30
2022-10-26T10:36:25.821Z,2.70
2022-10-26T10:38:54.027Z,2.37
2022-10-26T10:41:26.932Z,2.00
2022-10-26T10:43:55.638Z,2.33
2022-10-26T10:46:24.691Z,2.60
2022-10-26T10:48:53.531Z,2.10
2022-10-26T10:51:22.732Z,2.40
2022-10-26T10:53:49.455Z,2.20
2022-10-26T10:56:23.860Z,2.37
2022-10-26T10:58:53.406Z,2.13
2022-10-26T11:01:23.100Z,2.77
2022-10-26T11:04:11.461Z,2.83
2022-10-26T11:06:39.499Z,2.67
2022-10-26T11:09:11.887Z,2.13
2022-10-26T11:11:44.687Z,2.50
2022-10-26T11:14:16.144Z,1.73
2022-10-26T11:16:45.150Z,1.53
2022-10-26T11:19:30.395Z,2.17
2022-10-26T11:21:57.520Z,1.40
2022-10-26T11:24:31.088Z,1.20
2022-10-26T11:27:04.694Z,1.70
2022-10-26T11:29:39.886Z,1.30
2022-10-26T11:32:14.270Z,1.63
2022-10-26T11:34:45.294Z,1.97
2022-10-26T11:37:15.151Z,1.50
2022-10-26T11:39:46.002Z,1.60
2022-10-26T11:42:26.413Z,2.17
2022-10-26T11:44:59.719Z,1.80
2022-10-26T11:47:38.647Z,1.60
2022-10-26T11:50:17.505Z,1.63
2022-10-26T11:52:45.128Z,1.50
2022-10-26T11:55:11.931Z,1.67
2022-10-26T11:57:38.861Z,1.50
2022-10-26T12:00:06.051Z,1.63
2022-10-26T12:02:38.601Z,1.60
2022-10-26T12:05:16.744Z,1.80
2022-10-26T12:08:13.101Z,2.13
2022-10-26T12:10:41.610Z,1.57
2022-10-26T12:13:08.404Z,5.33
2022-10-26T12:18:50.402Z,3.90
2022-10-26T12:21:18.014Z,3.37
2022-10-26T12:23:55.494Z,2.03
2022-10-26T12:26:28.430Z,2.03
2022-10-26T12:29:15.528Z,2.47
2022-10-26T12:31:43.383Z,1.73
2022-10-26T12:34:23.542Z,1.73
2022-10-26T12:36:56.196Z,6.17
2022-10-26T12:39:43.346Z,2.33
2022-10-26T12:42:10.608Z,1.80
2022-10-26T12:44:39.790Z,2.23
2022-10-26T12:47:07.291Z,1.63
2022-10-26T12:49:52.859Z,1.70
2022-10-26T12:52:20.958Z,2.77
2022-10-26T12:55:06.478Z,5.17
2022-10-26T12:57:37.896Z,1.83
2022-10-26T13:00:06.138Z,2.00
2022-10-26T13:02:56.423Z,7.07
2022-10-26T13:05:33.386Z,10.27
2022-10-26T13:08:18.633Z,30.20
2022-10-26T13:11:06.006Z,53.27
2022-10-26T13:13:33.567Z,128.43
2022-10-26T13:16:01.334Z,85.37
2022-10-26T13:18:28.239Z,23.50
2022-10-26T13:21:04.346Z,5.97
2022-10-26T13:23:32.515Z,12.67
2022-10-26T13:26:03.951Z,3.93
2022-10-26T13:28:51.085Z,2.83
2022-10-26T13:31:33.007Z,9.13
2022-10-26T13:34:13.024Z,6.87
2022-10-26T13:36:50.334Z,20.83
2022-10-26T13:39:29.167Z,4.43
2022-10-26T13:41:56.492Z,12.33
2022-10-26T13:44:26.153Z,2.40
2022-10-26T13:46:59.664Z,4.87
2022-10-26T13:49:31.372Z,2.83
2022-10-26T13:52:01.107Z,3.03
2022-10-26T13:54:44.854Z,2.37
2022-10-26T13:57:15.564Z,3.63
2022-10-26T13:59:44.134Z,2.90
2022-10-26T14:02:24.592Z,2.43
2022-10-26T14:05:00.007Z,2.70
2022-10-26T14:07:32.262Z,2.47
2022-10-26T14:09:59.204Z,3.10
2022-10-26T14:12:28.516Z,19.07
2022-10-26T14:15:00.171Z,2.30
2022-10-26T14:17:26.949Z,2.50
2022-10-26T14:19:54.097Z,3.23
2022-10-26T14:22:25.113Z,2.50
2022-10-26T14:24:53.343Z,2.50
2022-10-26T14:27:40.408Z,2.63
2022-10-26T14:30:23.475Z,3.10
2022-10-26T14:32:51.774Z,2.87
2022-10-26T14:35:30.164Z,3.60
2022-10-26T14:38:23.203Z,3.53
2022-10-26T14:40:52.628Z,2.40
2022-10-26T14:43:22.861Z,2.93
2022-10-26T14:45:51.376Z,3.00
2022-10-26T14:48:28.668Z,3.30
2022-10-26T14:51:14.054Z,3.63
2022-10-26T14:53:41.576Z,2.80
2022-10-26T14:56:28.829Z,3.13
2022-10-26T14:58:56.451Z,2.60
2022-10-26T15:01:23.365Z,4.17
2022-10-26T15:04:00.738Z,3.87
2022-10-26T15:06:44.134Z,3.60
2022-10-26T15:09:37.829Z,2.93
2022-10-26T15:12:05.073Z,2.47
2022-10-26T15:14:32.037Z,2.70
2022-10-26T15:16:59.584Z,2.30
2022-10-26T15:19:27.441Z,1.77
2022-10-26T15:21:54.783Z,3.73
2022-10-26T15:24:21.526Z,2.40
2022-10-26T15:26:48.530Z,2.63
2022-10-26T15:29:33.822Z,2.93
2022-10-26T15:32:01.223Z,2.07
2022-10-26T15:34:28.079Z,1.47
2022-10-26T15:36:54.899Z,2.20
2022-10-26T15:39:22.626Z,1.60
2022-10-26T15:41:49.623Z,1.73
2022-10-26T15:44:21.536Z,1.40
2022-10-26T15:46:49.671Z,3.13
2022-10-26T15:49:17.924Z,3.07
2022-10-26T15:51:45.592Z,3.07
2022-10-26T15:54:12.451Z,3.43
2022-10-26T15:56:39.969Z,2.10
2022-10-26T15:59:19.649Z,3.17
2022-10-26T16:01:46.797Z,2.33
2022-10-26T16:04:13.739Z,2.10
2022-10-26T16:06:41.918Z,1.87
2022-10-26T16:09:11.693Z,1.77
2022-10-26T16:11:38.874Z,2.10
2022-10-26T16:14:05.749Z,20.57
2022-10-26T16:16:32.792Z,4.07
2022-10-26T16:19:18.445Z,20.90
2022-10-26T16:21:45.723Z,13.97
2022-10-26T16:24:12.747Z,6.63
2022-10-26T16:26:39.513Z,5.93
2022-10-26T16:29:08.695Z,4.97
2022-10-26T16:31:35.470Z,8.70
2022-10-26T16:34:04.196Z,33.07
2022-10-26T16:36:34.239Z,13.67
2022-10-26T16:41:29.035Z,25.53
2022-10-26T16:43:56.234Z,20.60
2022-10-26T16:46:23.102Z,16.47
2022-10-26T16:48:50.221Z,18.40
2022-10-26T16:51:19.017Z,13.93
2022-10-26T16:53:49.754Z,23.50
2022-10-26T16:56:18.711Z,13.13
2022-10-26T16:58:45.760Z,11.10
2022-10-26T17:01:13.651Z,9.40
2022-10-26T17:03:40.541Z,8.50
2022-10-26T17:06:07.821Z,9.23
2022-10-26T17:08:35.256Z,9.87
2022-10-26T17:11:06.572Z,13.30
2022-10-26T17:13:33.333Z,11.93
2022-10-26T17:16:04.407Z,13.13
2022-10-26T17:18:31.734Z,14.97
2022-10-26T17:20:58.480Z,16.83
2022-10-26T17:23:25.269Z,12.13
2022-10-26T17:25:52.113Z,7.90
2022-10-26T17:28:19.460Z,8.50
2022-10-26T17:30:47.800Z,7.67
2022-10-26T17:33:14.715Z,10.13
2022-10-26T17:35:41.510Z,8.00
2022-10-26T17:38:08.386Z,6.43
2022-10-26T17:40:35.157Z,58.00
2022-10-26T17:43:02.074Z,15.17
2022-10-26T17:45:28.847Z,13.77
2022-10-26T17:47:55.612Z,12.13
2022-10-26T17:50:22.446Z,10.63
2022-10-26T17:52:49.195Z,9.20
2022-10-26T17:55:16.131Z,9.30
2022-10-26T17:57:42.900Z,7.20
2022-10-26T18:00:09.989Z,6.10
2022-10-26T18:02:40.382Z,6.03
2022-10-26T18:05:07.914Z,6.60
2022-10-26T18:07:34.802Z,7.30
2022-10-26T18:10:19.509Z,7.67
2022-10-26T18:12:49.096Z,7.73
2022-10-26T18:15:16.200Z,6.33
2022-10-26T18:17:43.881Z,6.53
2022-10-26T18:20:11.175Z,7.33
2022-10-26T18:22:38.036Z,7.57
2022-10-26T18:25:04.918Z,7.70
2022-10-26T18:27:32.085Z,7.53
2022-10-26T18:29:58.864Z,7.60
2022-10-26T18:32:25.729Z,10.93
2022-10-26T18:34:52.479Z,12.80
2022-10-26T18:37:19.234Z,13.67
2022-10-26T18:39:46.088Z,13.77
2022-10-26T18:42:13.115Z,18.00
2022-10-26T18:44:40.115Z,17.93
2022-10-26T18:47:06.887Z,15.50
2022-10-26T18:49:33.774Z,9.77
2022-10-26T18:52:00.634Z,8.90
2022-10-26T18:54:29.618Z,8.93
2022-10-26T18:56:57.910Z,10.10
2022-10-26T18:59:24.684Z,8.83
2022-10-26T19:01:51.764Z,6.10
2022-10-26T19:04:18.772Z,5.27
2022-10-26T19:06:47.550Z,5.93
2022-10-26T19:09:18.386Z,6.70
2022-10-26T19:11:45.340Z,6.53
2022-10-26T19:14:12.592Z,5.90
2022-10-26T19:16:45.914Z,6.37
2022-10-26T19:19:14.557Z,7.83
2022-10-26T19:21:41.380Z,8.27
2022-10-26T19:24:12.110Z,10.60
2022-10-26T19:26:43.180Z,10.20
2022-10-26T19:29:13.948Z,14.50
2022-10-26T19:31:41.832Z,15.07
2022-10-26T19:34:10.251Z,13.43
2022-10-26T19:36:37.183Z,15.63
2022-10-26T19:39:04.094Z,11.87
2022-10-26T19:41:31.485Z,26.33
2022-10-26T19:46:27.693Z,26.30
2022-10-26T19:48:55.651Z,21.47
2022-10-26T19:51:22.948Z,16.07
2022-10-26T19:53:49.762Z,15.80
2022-10-26T19:56:17.524Z,18.20
2022-10-26T19:58:44.881Z,16.33
2022-10-26T20:01:13.121Z,17.47
2022-10-26T20:03:40.390Z,10.40
2022-10-26T20:06:11.444Z,12.73
2022-10-26T20:08:39.247Z,13.40
2022-10-26T20:11:09.040Z,16.00
2022-10-26T20:13:39.543Z,15.50
2022-10-26T20:16:08.013Z,14.97
2022-10-26T20:18:35.592Z,18.40
2022-10-26T20:21:07.166Z,17.73
2022-10-26T20:23:34.842Z,12.90
2022-10-26T20:26:03.549Z,14.67
2022-10-26T20:28:31.253Z,14.37
2022-10-26T20:30:59.630Z,14.03
2022-10-26T20:33:27.443Z,11.33
2022-10-26T20:36:01.101Z,13.33
2022-10-26T20:38:28.803Z,13.10
2022-10-26T20:40:57.616Z,7.60
2022-10-26T20:43:25.508Z,9.37
2022-10-26T20:45:52.957Z,9.63
2022-10-26T20:48:20.110Z,10.17
2022-10-26T20:50:50.147Z,10.63
2022-10-26T20:53:32.741Z,10.10
2022-10-26T20:56:01.008Z,9.07
2022-10-26T20:58:46.855Z,11.70
2022-10-26T21:01:23.037Z,14.07
2022-10-26T21:03:50.525Z,14.17
2022-10-26T21:06:17.350Z,12.33
2022-10-26T21:08:44.494Z,9.97
2022-10-26T21:11:11.827Z,12.40
2022-10-26T21:13:38.563Z,11.77
2022-10-26T21:16:08.572Z,10.93
2022-10-26T21:18:36.445Z,13.17
2022-10-26T21:21:03.863Z,12.30
2022-10-26T21:23:31.962Z,11.03
2022-10-26T21:25:58.875Z,10.57
2022-10-26T21:28:27.210Z,11.03
2022-10-26T21:30:54.594Z,10.63
2022-10-26T21:33:24.086Z,11.57
2022-10-26T21:35:55.027Z,10.97
2022-10-26T21:38:22.076Z,11.83
2022-10-26T21:40:48.826Z,11.57
2022-10-26T21:43:16.914Z,11.43
2022-10-26T21:45:44.051Z,11.60
2022-10-26T21:48:10.825Z,10.47
2022-10-26T21:50:37.715Z,11.20
2022-10-26T21:53:04.435Z,11.53
2022-10-26T21:55:31.215Z,11.30
2022-10-26T21:57:58.131Z,11.97
2022-10-26T22:00:25.487Z,12.47
2022-10-26T22:02:53.241Z,12.77
2022-10-26T22:05:20.869Z,12.40
2022-10-26T22:07:48.219Z,12.50
2022-10-26T22:10:15.266Z,12.70
2022-10-26T22:12:42.110Z,12.30
2022-10-26T22:15:09.357Z,15.70
2022-10-26T22:17:37.354Z,16.00
2022-10-26T22:20:04.731Z,15.93
2022-10-26T22:22:31.726Z,16.20
2022-10-26T22:24:59.264Z,15.53
2022-10-26T22:27:27.041Z,15.43
2022-10-26T22:29:54.469Z,17.97
2022-10-26T22:32:22.137Z,15.57
2022-10-26T22:34:50.746Z,14.10
2022-10-26T22:37:24.086Z,13.33
2022-10-26T22:39:50.904Z,16.23
2022-10-26T22:42:17.697Z,14.90
2022-10-26T22:44:44.983Z,15.07
2022-10-26T22:47:13.167Z,15.33
2022-10-26T22:49:40.224Z,18.47
2022-10-26T22:52:07.104Z,21.30
2022-10-26T22:54:34.694Z,22.37
2022-10-26T22:57:01.627Z,21.53
2022-10-26T22:59:28.480Z,16.40
2022-10-26T23:01:56.066Z,17.70
2022-10-26T23:04:23.485Z,15.53
2022-10-26T23:06:50.711Z,16.73
2022-10-26T23:09:18.190Z,16.17
2022-10-26T23:11:45.407Z,15.47
2022-10-26T23:14:12.554Z,15.13
2022-10-26T23:16:40.219Z,15.93
2022-10-26T23:19:09.360Z,14.57
2022-10-26T23:21:37.263Z,14.27
2022-10-26T23:24:05.239Z,13.57
2022-10-26T23:26:32.104Z,13.43
2022-10-26T23:28:59.186Z,15.23
2022-10-26T23:31:27.064Z,16.17
2022-10-26T23:33:55.059Z,14.53
2022-10-26T23:36:22.724Z,14.97
2022-10-26T23:38:50.228Z,14.97
2022-10-26T23:41:17.775Z,14.73
2022-10-26T23:43:45.026Z,15.73
2022-10-26T23:46:12.042Z,16.27
2022-10-26T23:48:39.317Z,14.97
2022-10-26T23:51:06.657Z,15.30
2022-10-26T23:53:34.305Z,15.53
2022-10-26T23:56:02.305Z,16.97
2022-10-26T23:58:29.517Z,16.47
